createdAt,value
2023-07-18T00:00:53.648Z,1.40
2023-07-18T00:03:29.637Z,1.50
2023-07-18T00:05:59.603Z,1.38
2023-07-18T00:08:40.611Z,1.25
2023-07-18T00:11:15.665Z,1.23
2023-07-18T00:13:51.589Z,1.40
2023-07-18T00:16:19.424Z,1.27
2023-07-18T00:18:55.585Z,1.42
2023-07-18T00:21:23.202Z,1.52
2023-07-18T00:23:57.565Z,1.02
2023-07-18T00:26:32.549Z,1.83
2023-07-18T00:29:00.191Z,1.25
2023-07-18T00:31:34.641Z,1.30
2023-07-18T00:34:03.796Z,1.20
2023-07-18T00:36:40.534Z,1.35
2023-07-18T00:39:09.348Z,1.45
2023-07-18T00:41:43.644Z,1.20
2023-07-18T00:44:17.570Z,1.25
2023-07-18T00:46:51.570Z,1.60
2023-07-18T00:49:19.436Z,1.30
2023-07-18T00:51:54.572Z,1.42
2023-07-18T00:54:23.176Z,1.17
2023-07-18T00:56:57.638Z,1.25
2023-07-18T00:59:25.976Z,1.40
2023-07-18T01:01:53.609Z,1.35
2023-07-18T01:04:28.607Z,1.30
2023-07-18T01:07:03.586Z,1.77
2023-07-18T01:09:46.564Z,1.88
2023-07-18T01:12:21.668Z,1.45
2023-07-18T01:14:50.632Z,1.23
2023-07-18T01:17:25.537Z,1.23
2023-07-18T01:19:59.577Z,0.93
2023-07-18T01:22:33.646Z,1.85
2023-07-18T01:25:02.496Z,1.45
2023-07-18T01:27:39.542Z,1.58
2023-07-18T01:30:15.648Z,1.20
2023-07-18T01:32:50.041Z,1.13
2023-07-18T01:35:27.619Z,1.27
2023-07-18T01:37:57.782Z,1.80
2023-07-18T01:40:32.631Z,1.30
2023-07-18T01:43:06.615Z,1.10
2023-07-18T01:45:34.496Z,1.40
2023-07-18T01:48:09.660Z,1.60
2023-07-18T01:50:44.610Z,1.45
2023-07-18T01:53:21.653Z,1.50
2023-07-18T01:55:49.406Z,1.50
2023-07-18T01:58:23.695Z,1.33
2023-07-18T02:00:58.761Z,1.30
2023-07-18T02:03:34.920Z,1.23
2023-07-18T02:06:08.764Z,1.50
2023-07-18T02:09:01.366Z,1.42
2023-07-18T02:11:30.232Z,1.50
2023-07-18T02:14:04.870Z,1.58
2023-07-18T02:16:35.061Z,1.42
2023-07-18T02:19:12.071Z,1.67
2023-07-18T02:21:48.662Z,1.67
2023-07-18T02:24:22.689Z,1.48
2023-07-18T02:26:50.381Z,1.27
2023-07-18T02:29:24.733Z,1.58
2023-07-18T02:32:04.685Z,1.30
2023-07-18T02:34:38.663Z,1.30
2023-07-18T02:37:12.654Z,1.20
2023-07-18T02:39:40.448Z,1.50
2023-07-18T02:42:14.642Z,1.30
2023-07-18T02:44:42.243Z,1.40
2023-07-18T02:47:17.678Z,1.42
2023-07-18T02:49:45.349Z,1.25
2023-07-18T02:52:20.649Z,1.38
2023-07-18T02:54:55.665Z,1.30
2023-07-18T02:57:33.897Z,1.13
2023-07-18T03:00:08.622Z,1.50
2023-07-18T03:02:42.726Z,1.52
2023-07-18T03:05:12.000Z,1.08
2023-07-18T03:07:46.972Z,1.42
2023-07-18T03:10:27.636Z,1.65
2023-07-18T03:13:08.719Z,2.90
2023-07-18T03:15:36.844Z,2.60
2023-07-18T03:18:10.635Z,1.65
2023-07-18T03:20:40.696Z,1.23
2023-07-18T03:23:15.663Z,1.33
2023-07-18T03:25:43.434Z,1.40
2023-07-18T03:28:17.683Z,1.17
2023-07-18T03:30:51.651Z,2.28
2023-07-18T03:33:20.364Z,1.65
2023-07-18T03:35:49.368Z,1.17
2023-07-18T03:38:23.663Z,1.48
2023-07-18T03:40:52.054Z,1.30
2023-07-18T03:43:27.774Z,1.70
2023-07-18T03:45:55.660Z,1.58
2023-07-18T03:48:29.724Z,1.30
2023-07-18T03:50:57.349Z,1.25
2023-07-18T03:53:32.656Z,1.40
2023-07-18T03:56:14.717Z,1.50
2023-07-18T03:58:42.297Z,1.52
2023-07-18T04:01:19.033Z,1.45
2023-07-18T04:03:54.025Z,1.50
2023-07-18T04:06:22.577Z,1.30
2023-07-18T04:09:03.669Z,1.38
2023-07-18T04:11:41.366Z,1.30
2023-07-18T04:14:15.717Z,1.20
2023-07-18T04:16:50.684Z,1.42
2023-07-18T04:19:26.674Z,1.40
2023-07-18T04:22:00.697Z,1.52
2023-07-18T04:24:37.125Z,1.38
2023-07-18T04:27:05.102Z,1.20
2023-07-18T04:29:42.540Z,1.50
2023-07-18T04:32:12.008Z,1.48
2023-07-18T04:34:46.724Z,1.48
2023-07-18T04:37:20.653Z,1.25
2023-07-18T04:39:54.689Z,1.60
2023-07-18T04:42:28.805Z,1.25
2023-07-18T04:45:06.012Z,1.17
2023-07-18T04:47:40.738Z,1.20
2023-07-18T04:50:18.682Z,1.45
2023-07-18T04:52:53.725Z,1.60
2023-07-18T04:55:27.753Z,1.42
2023-07-18T04:57:56.731Z,1.55
2023-07-18T05:00:31.667Z,1.60
2023-07-18T05:03:00.777Z,1.60
2023-07-18T05:05:36.696Z,1.33
2023-07-18T05:08:04.888Z,1.50
2023-07-18T05:10:39.664Z,1.65
2023-07-18T05:13:20.703Z,1.55
2023-07-18T05:15:54.701Z,1.60
2023-07-18T05:18:28.692Z,1.40
2023-07-18T05:21:06.744Z,1.40
2023-07-18T05:23:40.692Z,1.25
2023-07-18T05:26:15.660Z,1.67
2023-07-18T05:28:49.715Z,1.70
2023-07-18T05:31:24.206Z,1.75
2023-07-18T05:33:59.699Z,1.52
2023-07-18T05:36:33.705Z,1.70
2023-07-18T05:39:10.898Z,1.60
2023-07-18T05:41:46.961Z,1.52
2023-07-18T05:44:17.781Z,1.70
2023-07-18T05:46:53.822Z,1.40
2023-07-18T05:49:21.922Z,1.58
2023-07-18T05:51:56.740Z,2.00
2023-07-18T05:54:26.030Z,1.50
2023-07-18T05:56:53.665Z,1.65
2023-07-18T05:59:27.716Z,1.60
2023-07-18T06:01:55.385Z,1.70
2023-07-18T06:04:29.727Z,1.83
2023-07-18T06:06:57.340Z,1.50
2023-07-18T06:09:33.728Z,1.45
2023-07-18T06:12:08.736Z,1.48
2023-07-18T06:14:44.753Z,1.55
2023-07-18T06:17:12.474Z,1.67
2023-07-18T06:19:46.749Z,1.52
2023-07-18T06:22:21.733Z,1.80
2023-07-18T06:24:59.294Z,1.50
2023-07-18T06:27:28.069Z,1.65
2023-07-18T06:30:02.700Z,1.40
2023-07-18T06:32:30.499Z,1.45
2023-07-18T06:35:00.859Z,1.75
2023-07-18T06:37:40.729Z,1.63
2023-07-18T06:40:18.704Z,1.30
2023-07-18T06:42:52.709Z,1.55
2023-07-18T06:45:26.843Z,1.98
2023-07-18T06:48:02.724Z,1.58
2023-07-18T06:50:36.711Z,1.48
2023-07-18T06:53:04.569Z,1.40
2023-07-18T06:55:39.840Z,1.55
2023-07-18T06:58:19.118Z,2.58
2023-07-18T07:00:54.793Z,1.65
2023-07-18T07:03:23.813Z,1.75
2023-07-18T07:05:57.831Z,2.75
2023-07-18T07:08:25.939Z,1.88
2023-07-18T07:11:20.756Z,1.70
2023-07-18T07:13:48.770Z,1.60
2023-07-18T07:16:22.501Z,1.52
2023-07-18T07:18:58.600Z,1.88
2023-07-18T07:21:36.687Z,1.25
2023-07-18T07:24:06.158Z,1.70
2023-07-18T07:26:34.262Z,1.90
2023-07-18T07:29:08.795Z,1.60
2023-07-18T07:31:44.797Z,1.60
2023-07-18T07:34:17.626Z,1.73
2023-07-18T07:36:45.408Z,1.60
2023-07-18T07:39:20.738Z,1.40
2023-07-18T07:41:54.729Z,1.45
2023-07-18T07:44:26.017Z,3.47
2023-07-18T07:47:03.206Z,1.30
2023-07-18T07:49:31.016Z,1.55
2023-07-18T07:51:58.545Z,1.42
2023-07-18T07:54:33.180Z,1.42
2023-07-18T07:57:06.759Z,1.23
2023-07-18T07:59:36.903Z,1.40
2023-07-18T08:02:11.688Z,1.38
2023-07-18T08:04:40.729Z,1.55
2023-07-18T08:07:18.937Z,1.70
2023-07-18T08:09:53.760Z,1.92
2023-07-18T08:12:28.656Z,1.42
2023-07-18T08:14:56.591Z,1.42
2023-07-18T08:17:30.739Z,2.35
2023-07-18T08:20:07.968Z,1.40
2023-07-18T08:22:44.144Z,1.88
2023-07-18T08:25:14.624Z,1.33
2023-07-18T08:27:50.118Z,1.90
2023-07-18T08:30:24.083Z,2.08
2023-07-18T08:32:58.099Z,1.60
2023-07-18T08:35:33.070Z,1.92
2023-07-18T08:38:00.738Z,1.70
2023-07-18T08:40:42.774Z,2.10
2023-07-18T08:43:21.773Z,1.92
2023-07-18T08:46:03.506Z,1.60
2023-07-18T08:48:38.320Z,1.95
2023-07-18T08:51:13.405Z,2.10
2023-07-18T08:53:48.449Z,1.90
2023-07-18T08:56:16.119Z,1.92
2023-07-18T08:58:50.365Z,1.77
2023-07-18T09:01:25.639Z,1.75
2023-07-18T09:04:00.507Z,2.00
2023-07-18T09:06:28.671Z,2.20
2023-07-18T09:08:57.318Z,2.30
2023-07-18T09:11:38.364Z,1.90
2023-07-18T09:14:14.485Z,2.20
2023-07-18T09:16:44.762Z,1.95
2023-07-18T09:19:12.639Z,2.00
2023-07-18T09:21:47.449Z,2.50
2023-07-18T09:24:21.466Z,2.50
2023-07-18T09:26:56.697Z,2.33
2023-07-18T09:29:28.849Z,2.53
2023-07-18T09:32:03.626Z,2.22
2023-07-18T09:34:38.475Z,2.65
2023-07-18T09:37:13.413Z,2.90
2023-07-18T09:39:48.538Z,2.72
2023-07-18T09:42:27.345Z,2.63
2023-07-18T09:45:04.781Z,2.40
2023-07-18T09:47:43.498Z,2.30
2023-07-18T09:50:21.381Z,2.80
2023-07-18T09:52:53.802Z,2.65
2023-07-18T09:55:35.671Z,2.67
2023-07-18T09:58:03.625Z,3.28
2023-07-18T10:00:38.405Z,2.75
2023-07-18T10:03:06.622Z,2.97
2023-07-18T10:05:42.349Z,2.65
2023-07-18T10:08:19.412Z,2.50
2023-07-18T10:11:15.366Z,2.15
2023-07-18T10:14:10.383Z,2.55
2023-07-18T10:16:50.347Z,2.85
2023-07-18T10:19:26.364Z,2.75
2023-07-18T10:21:55.137Z,2.63
2023-07-18T10:24:32.320Z,2.58
2023-07-18T10:27:08.437Z,2.60
2023-07-18T10:29:49.386Z,2.70
2023-07-18T10:32:39.592Z,2.78
2023-07-18T10:35:16.359Z,2.50
2023-07-18T10:38:02.369Z,2.60
2023-07-18T10:40:37.515Z,2.60
2023-07-18T10:43:14.479Z,2.88
2023-07-18T10:45:50.434Z,2.42
2023-07-18T10:48:27.425Z,2.70
2023-07-18T10:50:55.708Z,2.88
2023-07-18T10:53:33.476Z,3.00
2023-07-18T10:56:02.993Z,2.65
2023-07-18T10:58:37.362Z,2.80
2023-07-18T11:01:12.445Z,2.53
2023-07-18T11:03:57.255Z,2.92
2023-07-18T11:06:25.294Z,2.60
2023-07-18T11:08:59.397Z,2.90
2023-07-18T11:11:44.364Z,2.47
2023-07-18T11:14:12.256Z,2.60
2023-07-18T11:16:46.413Z,2.90
2023-07-18T11:19:15.241Z,2.92
2023-07-18T11:21:50.369Z,2.53
2023-07-18T11:24:18.432Z,2.70
2023-07-18T11:26:52.364Z,2.63
2023-07-18T11:29:27.673Z,2.75
2023-07-18T11:32:01.539Z,3.03
2023-07-18T11:34:31.292Z,2.67
2023-07-18T11:37:05.411Z,2.75
2023-07-18T11:39:33.759Z,2.28
2023-07-18T11:42:16.373Z,2.55
2023-07-18T11:44:45.456Z,2.38
2023-07-18T11:47:13.680Z,2.20
2023-07-18T11:49:50.389Z,2.35
2023-07-18T11:52:27.466Z,2.33
2023-07-18T11:54:55.559Z,2.60
2023-07-18T11:57:30.404Z,2.45
2023-07-18T11:59:58.511Z,2.63
2023-07-18T12:02:33.445Z,2.40
2023-07-18T12:05:02.142Z,3.05
2023-07-18T12:07:36.427Z,2.67
2023-07-18T12:10:13.017Z,2.90
2023-07-18T12:12:56.446Z,2.83
2023-07-18T12:15:31.685Z,2.58
2023-07-18T12:17:59.535Z,2.65
2023-07-18T12:20:34.418Z,2.70
2023-07-18T12:23:08.510Z,2.45
2023-07-18T12:25:39.846Z,3.10
2023-07-18T12:28:14.768Z,3.17
2023-07-18T12:30:43.333Z,2.70
2023-07-18T12:33:17.552Z,2.83
2023-07-18T12:35:45.431Z,2.80
2023-07-18T12:38:13.067Z,2.60
2023-07-18T12:40:47.420Z,3.10
2023-07-18T12:43:22.399Z,2.75
2023-07-18T12:45:56.427Z,2.67
2023-07-18T12:48:30.449Z,2.83
2023-07-18T12:51:06.451Z,3.08
2023-07-18T12:53:34.604Z,2.78
2023-07-18T12:56:09.453Z,2.72
2023-07-18T12:58:37.281Z,3.10
2023-07-18T13:01:11.438Z,3.05
2023-07-18T13:03:39.249Z,2.85
2023-07-18T13:06:14.458Z,3.10
2023-07-18T13:08:42.511Z,2.95
2023-07-18T13:11:16.431Z,2.65
2023-07-18T13:13:50.542Z,2.85
2023-07-18T13:16:24.442Z,2.65
2023-07-18T13:18:58.485Z,2.72
2023-07-18T13:21:32.401Z,3.10
2023-07-18T13:24:00.229Z,3.17
2023-07-18T13:26:34.408Z,3.13
2023-07-18T13:29:10.933Z,2.50
2023-07-18T13:31:45.516Z,2.75
2023-07-18T13:34:20.451Z,2.85
2023-07-18T13:36:48.062Z,3.38
2023-07-18T13:39:24.616Z,3.15
2023-07-18T13:41:58.443Z,3.10
2023-07-18T13:44:33.512Z,3.05
2023-07-18T13:47:01.311Z,3.08
2023-07-18T13:49:49.724Z,2.90
2023-07-18T13:52:20.622Z,3.22
2023-07-18T13:54:57.513Z,3.05
2023-07-18T13:57:26.550Z,3.38
2023-07-18T14:00:00.502Z,3.80
2023-07-18T14:02:28.241Z,3.22
2023-07-18T14:05:02.460Z,3.17
2023-07-18T14:07:30.073Z,3.03
2023-07-18T14:10:06.727Z,3.38
2023-07-18T14:12:42.214Z,2.97
2023-07-18T14:15:18.476Z,2.90
2023-07-18T14:17:47.082Z,2.85
2023-07-18T14:20:22.426Z,2.97
2023-07-18T14:22:50.618Z,3.55
2023-07-18T14:25:25.527Z,3.10
2023-07-18T14:28:01.536Z,3.47
2023-07-18T14:30:35.481Z,3.45
2023-07-18T14:33:11.863Z,3.53
2023-07-18T14:35:39.431Z,2.75
2023-07-18T14:38:13.450Z,3.17
2023-07-18T14:40:48.528Z,3.60
2023-07-18T14:43:29.010Z,3.00
2023-07-18T14:46:04.652Z,3.38
2023-07-18T14:48:39.517Z,3.28
2023-07-18T14:51:07.620Z,3.53
2023-07-18T14:53:41.492Z,3.50
2023-07-18T14:56:09.868Z,3.45
2023-07-18T14:58:44.442Z,3.38
2023-07-18T15:01:12.122Z,3.20
2023-07-18T15:03:48.490Z,3.35
2023-07-18T15:06:16.558Z,2.92
2023-07-18T15:08:50.747Z,3.33
2023-07-18T15:11:29.535Z,3.33
2023-07-18T15:14:11.490Z,3.47
2023-07-18T15:16:45.539Z,3.47
2023-07-18T15:19:20.597Z,3.80
2023-07-18T15:21:48.317Z,3.58
2023-07-18T15:24:30.973Z,3.13
2023-07-18T15:27:00.616Z,3.47
2023-07-18T15:29:35.462Z,3.58
2023-07-18T15:32:03.181Z,3.78
2023-07-18T15:34:37.483Z,3.22
2023-07-18T15:37:05.381Z,3.67
2023-07-18T15:39:39.493Z,3.53
2023-07-18T15:42:08.387Z,3.38
2023-07-18T15:44:44.680Z,3.42
2023-07-18T15:47:20.870Z,3.40
2023-07-18T15:49:48.915Z,3.95
2023-07-18T15:52:24.544Z,3.75
2023-07-18T15:54:53.552Z,3.10
2023-07-18T15:57:21.506Z,3.53
2023-07-18T15:59:58.521Z,3.20
2023-07-18T16:02:26.222Z,3.40
2023-07-18T16:05:00.506Z,3.58
2023-07-18T16:07:28.140Z,3.30
2023-07-18T16:10:05.454Z,3.47
2023-07-18T16:12:39.689Z,3.28
2023-07-18T16:15:14.500Z,3.28
2023-07-18T16:17:42.143Z,3.55
2023-07-18T16:20:16.542Z,3.22
2023-07-18T16:22:49.189Z,3.40
2023-07-18T16:25:26.471Z,3.30
2023-07-18T16:28:00.499Z,3.33
2023-07-18T16:30:35.501Z,3.20
2023-07-18T16:33:04.499Z,3.70
2023-07-18T16:35:38.467Z,3.63
2023-07-18T16:38:12.521Z,3.70
2023-07-18T16:40:48.128Z,3.70
2023-07-18T16:43:22.162Z,3.55
2023-07-18T16:46:00.809Z,3.25
2023-07-18T16:48:36.104Z,3.45
2023-07-18T16:51:03.948Z,3.38
2023-07-18T16:53:38.150Z,3.50
2023-07-18T16:56:05.928Z,3.63
2023-07-18T16:58:42.181Z,3.38
2023-07-18T17:01:12.840Z,3.28
2023-07-18T17:03:49.085Z,3.60
2023-07-18T17:06:16.772Z,3.70
2023-07-18T17:08:52.063Z,3.13
2023-07-18T17:11:27.603Z,3.97
2023-07-18T17:14:02.382Z,4.10
2023-07-18T17:16:30.135Z,3.50
2023-07-18T17:19:04.062Z,3.83
2023-07-18T17:21:32.030Z,3.78
2023-07-18T17:24:06.113Z,3.58
2023-07-18T17:26:35.410Z,4.03
2023-07-18T17:29:10.080Z,3.80
2023-07-18T17:31:44.164Z,3.88
2023-07-18T17:34:11.966Z,3.80
2023-07-18T17:36:39.806Z,4.15
2023-07-18T17:39:15.119Z,3.95
2023-07-18T17:41:51.483Z,3.80
2023-07-18T17:44:26.077Z,4.03
2023-07-18T17:47:00.254Z,4.13
2023-07-18T17:49:35.135Z,4.05
2023-07-18T17:52:02.801Z,4.15
2023-07-18T17:54:37.133Z,3.92
2023-07-18T17:57:13.072Z,4.25
2023-07-18T17:59:47.163Z,4.20
2023-07-18T18:02:23.170Z,4.38
2023-07-18T18:05:02.163Z,4.63
2023-07-18T18:07:36.126Z,4.53
2023-07-18T18:10:10.113Z,4.40
2023-07-18T18:12:45.174Z,4.40
2023-07-18T18:15:21.110Z,4.15
2023-07-18T18:17:57.234Z,4.72
2023-07-18T18:20:33.169Z,4.82
2023-07-18T18:23:00.993Z,4.32
2023-07-18T18:25:29.268Z,4.28
2023-07-18T18:28:06.723Z,4.15
2023-07-18T18:30:42.269Z,5.10
2023-07-18T18:33:16.177Z,4.60
2023-07-18T18:35:52.240Z,4.45
2023-07-18T18:38:20.126Z,4.80
2023-07-18T18:40:54.211Z,5.63
2023-07-18T18:43:29.133Z,4.63
2023-07-18T18:46:03.241Z,4.93
2023-07-18T18:48:31.209Z,4.50
2023-07-18T18:51:07.170Z,4.90
2023-07-18T18:53:43.843Z,5.20
2023-07-18T18:56:12.437Z,4.40
2023-07-18T18:58:47.169Z,5.05
2023-07-18T19:01:14.711Z,5.55
2023-07-18T19:03:49.342Z,5.93
2023-07-18T19:06:24.120Z,6.55
2023-07-18T19:08:51.775Z,6.07
2023-07-18T19:11:26.414Z,5.70
2023-07-18T19:14:11.223Z,6.50
2023-07-18T19:16:41.214Z,6.63
2023-07-18T19:19:16.174Z,6.95
2023-07-18T19:21:50.132Z,5.95
2023-07-18T19:24:24.150Z,6.45
2023-07-18T19:26:54.229Z,7.03
2023-07-18T19:29:30.154Z,6.15
2023-07-18T19:32:00.203Z,6.07
2023-07-18T19:34:35.465Z,6.10
2023-07-18T19:37:04.493Z,5.60
2023-07-18T19:39:39.190Z,5.90
2023-07-18T19:42:07.857Z,5.85
2023-07-18T19:44:44.288Z,5.97
2023-07-18T19:47:14.007Z,5.53
2023-07-18T19:49:48.200Z,5.70
2023-07-18T19:52:23.237Z,5.38
2023-07-18T19:54:58.167Z,5.50
2023-07-18T19:57:34.225Z,5.22
2023-07-18T20:00:12.400Z,5.78
2023-07-18T20:02:44.957Z,4.95
2023-07-18T20:05:22.262Z,5.45
2023-07-18T20:07:57.155Z,5.53
2023-07-18T20:10:31.184Z,5.65
2023-07-18T20:13:05.372Z,5.32
2023-07-18T20:15:44.192Z,4.72
2023-07-18T20:18:12.056Z,5.32
2023-07-18T20:20:50.385Z,5.85
2023-07-18T20:23:24.163Z,5.20
2023-07-18T20:25:53.695Z,5.10
2023-07-18T20:28:27.746Z,5.72
2023-07-18T20:31:04.729Z,5.15
2023-07-18T20:33:41.804Z,4.70
2023-07-18T20:36:10.970Z,4.80
2023-07-18T20:38:45.697Z,4.53
2023-07-18T20:41:13.270Z,5.03
2023-07-18T20:43:48.690Z,4.97
2023-07-18T20:46:24.776Z,4.30
2023-07-18T20:49:00.309Z,4.88
2023-07-18T20:51:35.709Z,4.85
2023-07-18T20:54:10.692Z,3.90
2023-07-18T20:56:39.913Z,4.85
2023-07-18T20:59:14.730Z,4.40
2023-07-18T21:01:42.301Z,4.05
2023-07-18T21:04:16.775Z,4.00
2023-07-18T21:06:50.726Z,3.92
2023-07-18T21:09:25.735Z,4.65
2023-07-18T21:12:13.659Z,4.55
2023-07-18T21:14:48.843Z,4.40
2023-07-18T21:17:22.764Z,4.18
2023-07-18T21:19:51.700Z,4.50
2023-07-18T21:22:19.596Z,3.88
2023-07-18T21:24:53.725Z,3.95
2023-07-18T21:27:21.463Z,3.70
2023-07-18T21:29:51.018Z,3.65
2023-07-18T21:32:25.706Z,3.90
2023-07-18T21:34:54.639Z,3.22
2023-07-18T21:37:29.739Z,3.40
2023-07-18T21:39:57.771Z,3.90
2023-07-18T21:42:31.727Z,3.35
2023-07-18T21:45:05.680Z,3.40
2023-07-18T21:47:40.759Z,3.70
2023-07-18T21:50:15.719Z,3.22
2023-07-18T21:53:06.962Z,3.40
2023-07-18T21:55:43.965Z,3.38
2023-07-18T21:58:18.701Z,3.42
2023-07-18T22:00:53.742Z,3.97
2023-07-18T22:03:27.908Z,3.85
2023-07-18T22:06:02.758Z,3.13
2023-07-18T22:08:38.717Z,3.05
2023-07-18T22:11:06.501Z,3.53
2023-07-18T22:13:47.739Z,3.10
2023-07-18T22:16:15.586Z,3.50
2023-07-18T22:18:49.740Z,3.50
2023-07-18T22:21:17.331Z,3.00
2023-07-18T22:23:54.936Z,3.30
2023-07-18T22:26:30.863Z,3.00
2023-07-18T22:28:58.676Z,2.70
2023-07-18T22:31:32.820Z,2.97
2023-07-18T22:34:02.343Z,3.22
2023-07-18T22:36:36.750Z,3.10
2023-07-18T22:39:05.191Z,3.00
2023-07-18T22:41:40.200Z,3.00
2023-07-18T22:44:08.989Z,2.70
2023-07-18T22:46:42.795Z,3.00
2023-07-18T22:49:16.712Z,3.00
2023-07-18T22:51:50.736Z,2.78
2023-07-18T22:54:29.257Z,2.60
2023-07-18T22:56:56.837Z,3.10
2023-07-18T22:59:31.747Z,2.53
2023-07-18T23:01:59.592Z,2.83
2023-07-18T23:04:34.777Z,3.10
2023-07-18T23:07:04.068Z,3.08
2023-07-18T23:09:38.755Z,2.42
2023-07-18T23:12:21.799Z,2.30
2023-07-18T23:14:56.718Z,2.80
2023-07-18T23:17:24.391Z,2.50
2023-07-18T23:19:58.732Z,2.80
2023-07-18T23:22:27.230Z,3.00
2023-07-18T23:25:01.746Z,2.70
2023-07-18T23:27:35.739Z,2.70
2023-07-18T23:30:12.755Z,2.72
2023-07-18T23:32:46.782Z,2.70
2023-07-18T23:35:23.305Z,2.90
2023-07-18T23:37:51.046Z,2.70
2023-07-18T23:40:24.719Z,2.58
2023-07-18T23:42:52.521Z,2.42
2023-07-18T23:45:26.824Z,2.70
2023-07-18T23:47:54.506Z,2.92
2023-07-18T23:50:28.781Z,3.35
2023-07-18T23:53:03.774Z,3.05
2023-07-18T23:55:33.863Z,2.78
2023-07-18T23:58:08.150Z,2.70
